createdAt,value
2022-10-17T00:01:15.677Z,0.70
2022-10-17T00:03:44.849Z,0.60
2022-10-17T00:06:15.273Z,0.90
2022-10-17T00:08:45.118Z,1.10
2022-10-17T00:11:23.199Z,1.40
2022-10-17T00:13:56.323Z,1.40
2022-10-17T00:16:36.566Z,1.10
2022-10-17T00:19:07.952Z,1.20
2022-10-17T00:21:35.681Z,0.60
2022-10-17T00:24:07.256Z,0.80
2022-10-17T00:26:36.505Z,0.70
2022-10-17T00:29:05.348Z,0.60
2022-10-17T00:31:33.207Z,0.80
2022-10-17T00:34:01.069Z,0.70
2022-10-17T00:36:28.703Z,0.60
2022-10-17T00:38:59.211Z,0.80
2022-10-17T00:41:33.353Z,0.50
2022-10-17T00:44:31.050Z,0.70
2022-10-17T00:47:05.109Z,0.60
2022-10-17T00:52:29.184Z,0.70
2022-10-17T00:55:25.394Z,0.90
2022-10-17T00:57:54.614Z,0.60
2022-10-17T01:00:24.519Z,0.90
2022-10-17T01:02:53.426Z,0.60
2022-10-17T01:05:22.534Z,0.60
2022-10-17T01:07:55.077Z,0.70
2022-10-17T01:10:44.549Z,0.70
2022-10-17T01:13:27.171Z,0.60
2022-10-17T01:16:40.393Z,0.60
2022-10-17T01:19:44.030Z,0.60
2022-10-17T01:22:51.531Z,0.50
2022-10-17T01:25:47.433Z,0.50
2022-10-17T01:28:46.750Z,0.90
2022-10-17T01:32:04.271Z,0.60
2022-10-17T01:35:20.508Z,0.60
2022-10-17T01:38:03.062Z,0.50
2022-10-17T01:40:49.103Z,0.50
2022-10-17T01:43:26.075Z,0.70
2022-10-17T01:46:03.515Z,0.60
2022-10-17T01:48:38.872Z,0.50
2022-10-17T01:51:20.995Z,0.90
2022-10-17T01:54:07.678Z,0.80
2022-10-17T01:56:42.374Z,0.80
2022-10-17T01:59:42.618Z,0.60
2022-10-17T02:02:14.148Z,0.50
2022-10-17T02:04:43.403Z,0.40
2022-10-17T02:07:13.764Z,0.80
2022-10-17T02:09:42.536Z,0.50
2022-10-17T02:12:58.150Z,0.60
2022-10-17T02:15:55.237Z,0.50
2022-10-17T02:18:34.845Z,0.50
2022-10-17T02:21:26.262Z,0.80
2022-10-17T02:24:17.896Z,0.70
2022-10-17T02:27:06.890Z,0.50
2022-10-17T02:29:50.395Z,0.50
2022-10-17T02:32:56.894Z,0.70
2022-10-17T02:35:31.701Z,1.00
2022-10-17T02:38:04.057Z,0.70
2022-10-17T02:40:33.001Z,0.70
2022-10-17T02:43:02.759Z,0.40
2022-10-17T02:45:36.232Z,0.50
2022-10-17T02:48:15.128Z,0.90
2022-10-17T02:51:27.812Z,0.80
2022-10-17T02:59:20.454Z,0.50
2022-10-17T03:01:51.622Z,0.70
2022-10-17T03:04:21.045Z,0.70
2022-10-17T03:06:49.759Z,0.70
2022-10-17T03:09:18.026Z,0.80
2022-10-17T03:11:48.508Z,0.70
2022-10-17T03:14:17.585Z,0.60
2022-10-17T03:16:45.762Z,0.60
2022-10-17T03:19:13.445Z,1.20
2022-10-17T03:21:43.161Z,0.90
2022-10-17T03:24:10.840Z,1.10
2022-10-17T03:26:38.552Z,1.00
2022-10-17T03:29:06.353Z,1.10
2022-10-17T03:31:34.473Z,2.60
2022-10-17T03:34:03.171Z,2.60
2022-10-17T03:36:30.851Z,7.20
2022-10-17T03:38:58.761Z,7.50
2022-10-17T03:41:27.646Z,4.30
2022-10-17T03:43:56.058Z,2.40
2022-10-17T03:46:23.689Z,2.30
2022-10-17T03:48:51.381Z,1.60
2022-10-17T03:51:21.769Z,1.60
2022-10-17T03:53:51.557Z,1.70
2022-10-17T03:56:24.554Z,4.10
2022-10-17T03:58:52.806Z,6.90
2022-10-17T04:01:22.663Z,3.50
2022-10-17T04:03:56.177Z,2.70
2022-10-17T04:06:24.824Z,3.20
2022-10-17T04:08:53.109Z,2.90
2022-10-17T04:11:22.818Z,2.20
2022-10-17T04:13:57.542Z,2.20
2022-10-17T04:16:31.078Z,1.90
2022-10-17T04:19:00.089Z,1.70
2022-10-17T04:21:30.069Z,1.50
2022-10-17T04:24:02.075Z,1.50
2022-10-17T04:26:29.837Z,1.80
2022-10-17T04:28:57.515Z,1.30
2022-10-17T04:31:25.233Z,1.70
2022-10-17T04:33:53.280Z,1.40
2022-10-17T04:36:21.328Z,1.20
2022-10-17T04:38:49.545Z,1.20
2022-10-17T04:41:21.465Z,1.40
2022-10-17T04:43:51.153Z,1.60
2022-10-17T04:46:19.959Z,1.70
2022-10-17T04:48:47.698Z,1.90
2022-10-17T04:51:21.983Z,2.40
2022-10-17T04:53:52.336Z,1.70
2022-10-17T04:56:24.038Z,1.90
2022-10-17T04:58:52.523Z,1.30
2022-10-17T05:01:23.471Z,0.90
2022-10-17T05:03:53.009Z,1.40
2022-10-17T05:06:25.538Z,1.20
2022-10-17T05:08:53.746Z,1.20
2022-10-17T05:11:27.667Z,1.00
2022-10-17T05:14:26.002Z,1.30
2022-10-17T05:16:53.796Z,1.10
2022-10-17T05:19:22.743Z,0.80
2022-10-17T05:21:50.982Z,1.00
2022-10-17T05:24:18.668Z,2.60
2022-10-17T05:26:46.848Z,2.80
2022-10-17T05:29:18.700Z,1.90
2022-10-17T05:31:46.722Z,1.70
2022-10-17T05:34:14.771Z,2.00
2022-10-17T05:36:42.983Z,1.70
2022-10-17T05:39:14.893Z,2.00
2022-10-17T05:41:42.570Z,2.40
2022-10-17T05:44:13.062Z,1.90
2022-10-17T05:46:43.374Z,2.20
2022-10-17T05:49:19.775Z,2.60
2022-10-17T05:51:59.003Z,2.70
2022-10-17T05:54:27.373Z,2.70
2022-10-17T05:56:56.369Z,2.20
2022-10-17T05:59:28.192Z,1.90
2022-10-17T06:01:55.918Z,1.90
2022-10-17T06:04:24.228Z,2.60
2022-10-17T06:06:52.434Z,2.50
2022-10-17T06:09:24.270Z,2.50
2022-10-17T06:11:52.006Z,2.90
2022-10-17T06:14:20.669Z,2.80
2022-10-17T06:16:49.404Z,3.90
2022-10-17T06:19:18.428Z,4.80
2022-10-17T06:21:46.118Z,3.70
2022-10-17T06:24:14.146Z,2.30
2022-10-17T06:26:43.558Z,3.50
2022-10-17T06:29:12.830Z,3.30
2022-10-17T06:31:42.900Z,3.30
2022-10-17T06:34:11.313Z,3.60
2022-10-17T06:36:40.522Z,3.80
2022-10-17T06:39:10.715Z,3.80
2022-10-17T06:41:41.726Z,3.60
2022-10-17T06:44:11.397Z,3.60
2022-10-17T06:46:41.416Z,4.00
2022-10-17T06:49:12.701Z,4.20
2022-10-17T06:51:40.344Z,4.20
2022-10-17T06:54:09.028Z,4.60
2022-10-17T06:56:39.834Z,6.00
2022-10-17T06:59:12.101Z,4.20
2022-10-17T07:01:41.821Z,3.00
2022-10-17T07:04:13.046Z,4.00
2022-10-17T07:06:41.654Z,3.80
2022-10-17T07:09:09.803Z,4.90
2022-10-17T07:11:38.367Z,3.70
2022-10-17T07:14:10.501Z,3.80
2022-10-17T07:16:38.419Z,3.30
2022-10-17T07:19:06.540Z,3.20
2022-10-17T07:21:36.726Z,6.10
2022-10-17T07:24:11.587Z,5.30
2022-10-17T07:26:39.470Z,4.20
2022-10-17T07:29:07.935Z,3.30
2022-10-17T07:31:35.806Z,3.90
2022-10-17T07:34:03.823Z,5.50
2022-10-17T07:36:32.044Z,3.50
2022-10-17T07:39:00.329Z,3.10
2022-10-17T07:41:29.393Z,3.50
2022-10-17T07:43:58.166Z,4.60
2022-10-17T07:46:26.991Z,5.40
2022-10-17T07:48:54.774Z,4.50
2022-10-17T07:51:23.619Z,5.50
2022-10-17T07:53:51.410Z,5.50
2022-10-17T07:56:20.381Z,6.00
2022-10-17T07:58:49.475Z,5.30
2022-10-17T08:01:18.326Z,4.20
2022-10-17T08:03:49.834Z,4.30
2022-10-17T08:06:18.920Z,4.40
2022-10-17T08:08:46.657Z,4.50
2022-10-17T08:11:17.759Z,3.40
2022-10-17T08:13:45.526Z,4.40
2022-10-17T08:16:13.900Z,3.20
2022-10-17T08:18:44.172Z,3.20
2022-10-17T08:21:14.100Z,3.40
2022-10-17T08:23:42.574Z,4.00
2022-10-17T08:26:14.953Z,2.30
2022-10-17T08:28:45.844Z,2.80
2022-10-17T08:31:19.014Z,3.10
2022-10-17T08:36:21.469Z,3.60
2022-10-17T08:38:52.831Z,2.60
2022-10-17T08:41:29.853Z,3.30
2022-10-17T08:44:09.394Z,2.40
2022-10-17T08:46:42.203Z,3.40
2022-10-17T08:49:27.581Z,2.90
2022-10-17T08:52:11.347Z,3.00
2022-10-17T08:54:53.862Z,3.00
2022-10-17T08:57:22.032Z,3.00
2022-10-17T08:59:53.496Z,2.40
2022-10-17T09:02:49.756Z,2.90
2022-10-17T09:06:18.461Z,3.20
2022-10-17T09:09:14.398Z,2.70
2022-10-17T09:12:10.514Z,3.10
2022-10-17T09:15:07.156Z,3.50
2022-10-17T09:17:49.933Z,3.20
2022-10-17T09:20:24.535Z,6.20
2022-10-17T09:23:11.519Z,4.00
2022-10-17T09:25:48.105Z,3.70
2022-10-17T09:28:39.965Z,4.40
2022-10-17T09:31:25.056Z,3.30
2022-10-17T09:33:58.001Z,3.20
2022-10-17T09:36:39.133Z,3.80
2022-10-17T09:39:31.790Z,5.00
2022-10-17T09:42:02.219Z,5.50
2022-10-17T09:44:56.923Z,4.40
2022-10-17T09:47:35.155Z,4.00
2022-10-17T09:50:03.245Z,3.40
2022-10-17T09:52:39.497Z,3.80
2022-10-17T09:55:44.497Z,3.20
2022-10-17T09:58:12.572Z,3.20
2022-10-17T10:00:47.472Z,3.30
2022-10-17T10:03:27.521Z,3.30
2022-10-17T10:06:25.415Z,3.30
2022-10-17T10:09:00.263Z,3.20
2022-10-17T10:11:56.361Z,3.00
2022-10-17T10:14:34.805Z,1.50
2022-10-17T10:17:33.214Z,2.60
2022-10-17T10:20:25.405Z,2.40
2022-10-17T10:23:22.350Z,2.00
2022-10-17T10:25:59.844Z,2.20
2022-10-17T10:28:35.846Z,2.50
2022-10-17T10:31:11.220Z,2.00
2022-10-17T10:33:46.973Z,2.90
2022-10-17T10:36:21.636Z,3.10
2022-10-17T10:39:01.272Z,2.90
2022-10-17T10:41:48.545Z,3.60
2022-10-17T10:44:29.078Z,3.40
2022-10-17T10:47:21.133Z,3.30
2022-10-17T10:50:06.769Z,3.80
2022-10-17T10:52:56.752Z,4.20
2022-10-17T10:55:40.370Z,3.50
2022-10-17T10:58:51.081Z,4.30
2022-10-17T11:01:52.213Z,3.40
2022-10-17T11:04:55.024Z,3.30
2022-10-17T11:07:44.273Z,2.90
2022-10-17T11:10:49.361Z,5.60
2022-10-17T11:13:29.176Z,5.20
2022-10-17T11:16:38.195Z,4.60
2022-10-17T11:19:28.008Z,4.40
2022-10-17T11:22:10.495Z,6.60
2022-10-17T11:24:54.606Z,2.70
2022-10-17T11:27:29.486Z,1.90
2022-10-17T11:29:58.520Z,0.80
2022-10-17T11:32:54.170Z,3.00
2022-10-17T11:35:40.861Z,3.60
2022-10-17T11:38:42.550Z,4.90
2022-10-17T11:41:18.815Z,11.60
2022-10-17T11:43:57.414Z,3.80
2022-10-17T11:46:29.654Z,2.80
2022-10-17T11:49:20.417Z,2.30
2022-10-17T11:52:11.174Z,3.00
2022-10-17T11:54:49.303Z,2.20
2022-10-17T11:57:26.327Z,2.30
2022-10-17T12:00:25.206Z,2.20
2022-10-17T12:03:34.867Z,2.60
2022-10-17T12:07:01.453Z,3.40
2022-10-17T12:09:53.593Z,2.90
2022-10-17T12:12:34.392Z,3.30
2022-10-17T12:15:14.198Z,3.30
2022-10-17T12:17:47.100Z,4.20
2022-10-17T12:20:21.716Z,2.30
2022-10-17T12:22:59.586Z,2.40
2022-10-17T12:25:33.695Z,2.60
2022-10-17T12:28:07.627Z,2.30
2022-10-17T12:30:48.553Z,2.60
2022-10-17T12:33:26.580Z,3.60
2022-10-17T12:36:27.769Z,3.20
2022-10-17T12:39:02.370Z,3.50
2022-10-17T12:44:16.678Z,2.30
2022-10-17T12:47:22.770Z,3.30
2022-10-17T12:49:56.819Z,3.30
2022-10-17T12:52:35.761Z,2.90
2022-10-17T12:55:15.796Z,1.90
2022-10-17T12:57:45.541Z,1.80
2022-10-17T13:00:32.704Z,1.80
2022-10-17T13:03:15.485Z,2.20
2022-10-17T13:05:54.363Z,2.30
2022-10-17T13:08:39.189Z,2.80
2022-10-17T13:11:10.171Z,5.00
2022-10-17T13:14:06.643Z,5.70
2022-10-17T13:16:41.690Z,4.70
2022-10-17T13:19:17.794Z,5.40
2022-10-17T13:22:06.559Z,5.10
2022-10-17T13:24:39.369Z,7.60
2022-10-17T13:27:31.607Z,7.20
2022-10-17T13:30:33.876Z,7.10
2022-10-17T13:33:04.771Z,10.10
2022-10-17T13:38:35.667Z,3.60
2022-10-17T13:41:34.923Z,3.80
2022-10-17T13:44:11.685Z,4.10
2022-10-17T13:46:40.807Z,3.60
2022-10-17T13:49:41.936Z,4.70
2022-10-17T13:52:24.300Z,3.70
2022-10-17T13:54:57.631Z,6.20
2022-10-17T13:57:39.967Z,9.80
2022-10-17T14:00:19.630Z,6.50
2022-10-17T14:02:49.075Z,5.10
2022-10-17T14:05:24.163Z,5.20
2022-10-17T14:08:12.431Z,5.30
2022-10-17T14:10:44.625Z,11.10
2022-10-17T14:13:35.978Z,7.80
2022-10-17T14:16:09.458Z,5.10
2022-10-17T14:18:38.761Z,8.00
2022-10-17T14:24:35.686Z,4.10
2022-10-17T14:27:04.673Z,3.50
2022-10-17T14:29:55.187Z,4.40
2022-10-17T14:32:23.889Z,5.20
2022-10-17T14:35:10.527Z,5.20
2022-10-17T14:37:54.308Z,5.40
2022-10-17T14:40:28.405Z,4.20
2022-10-17T14:43:05.909Z,3.80
2022-10-17T14:45:38.258Z,3.50
2022-10-17T14:48:20.631Z,4.60
2022-10-17T14:51:18.579Z,6.40
2022-10-17T14:54:25.088Z,7.30
2022-10-17T14:56:55.057Z,6.60
2022-10-17T14:59:52.273Z,12.10
2022-10-17T15:02:13.690Z,5.80
2022-10-17T15:04:41.877Z,6.40
2022-10-17T15:07:17.703Z,5.30
2022-10-17T15:09:49.426Z,4.70
2022-10-17T15:12:25.198Z,4.70
2022-10-17T15:14:54.250Z,4.10
2022-10-17T15:17:26.782Z,3.80
2022-10-17T15:19:58.852Z,3.80
2022-10-17T15:22:28.026Z,4.30
2022-10-17T15:24:55.865Z,4.30
2022-10-17T15:27:26.563Z,3.60
2022-10-17T15:29:54.701Z,5.50
2022-10-17T15:32:22.924Z,4.80
2022-10-17T15:34:50.742Z,5.00
2022-10-17T15:37:26.867Z,4.80
2022-10-17T15:39:55.952Z,6.00
2022-10-17T15:42:30.514Z,6.10
2022-10-17T15:44:59.850Z,6.20
2022-10-17T15:47:34.884Z,5.30
2022-10-17T15:50:04.893Z,5.70
2022-10-17T15:52:32.986Z,4.70
2022-10-17T15:55:05.115Z,4.80
2022-10-17T15:57:40.632Z,4.80
2022-10-17T16:00:20.942Z,5.30
2022-10-17T16:02:51.017Z,4.60
2022-10-17T16:05:26.557Z,5.00
2022-10-17T16:07:57.325Z,4.20
2022-10-17T16:10:26.895Z,5.40
2022-10-17T16:12:56.720Z,4.80
2022-10-17T16:15:29.403Z,4.90
2022-10-17T16:18:01.670Z,5.90
2022-10-17T16:20:34.552Z,8.70
2022-10-17T16:23:05.184Z,7.90
2022-10-17T16:25:33.793Z,15.00
2022-10-17T16:28:01.867Z,9.10
2022-10-17T16:30:33.071Z,16.40
2022-10-17T16:33:00.924Z,9.40
2022-10-17T16:35:34.896Z,6.40
2022-10-17T16:38:08.045Z,7.30
2022-10-17T16:40:40.346Z,8.40
2022-10-17T16:43:13.745Z,9.00
2022-10-17T16:45:42.988Z,7.30
2022-10-17T16:48:11.917Z,6.20
2022-10-17T16:50:40.357Z,5.70
2022-10-17T16:53:09.481Z,14.40
2022-10-17T16:55:41.123Z,17.40
2022-10-17T16:58:10.594Z,7.90
2022-10-17T17:00:41.300Z,11.50
2022-10-17T17:03:13.342Z,9.90
2022-10-17T17:05:41.985Z,5.30
2022-10-17T17:08:12.480Z,7.80
2022-10-17T17:10:51.594Z,7.50
2022-10-17T17:13:23.619Z,5.80
2022-10-17T17:15:56.121Z,6.10
2022-10-17T17:18:25.032Z,6.60
2022-10-17T17:21:03.625Z,6.80
2022-10-17T17:23:36.136Z,6.90
2022-10-17T17:26:20.675Z,6.10
2022-10-17T17:28:50.084Z,5.80
2022-10-17T17:31:22.396Z,7.00
2022-10-17T17:33:52.103Z,6.40
2022-10-17T17:36:28.726Z,7.50
2022-10-17T17:39:00.221Z,9.40
2022-10-17T17:41:29.952Z,6.40
2022-10-17T17:43:58.241Z,5.50
2022-10-17T17:46:26.685Z,4.70
2022-10-17T17:48:55.953Z,5.50
2022-10-17T17:51:29.478Z,6.30
2022-10-17T17:53:57.765Z,6.40
2022-10-17T17:56:29.995Z,5.80
2022-10-17T17:59:02.223Z,12.10
2022-10-17T18:01:38.007Z,7.20
2022-10-17T18:04:09.033Z,19.60
2022-10-17T18:06:40.359Z,37.20
2022-10-17T18:09:09.844Z,25.80
2022-10-17T18:11:40.078Z,32.90
2022-10-17T18:14:13.006Z,15.60
2022-10-17T18:16:42.719Z,18.50
2022-10-17T18:19:11.915Z,13.20
2022-10-17T18:21:39.683Z,12.50
2022-10-17T18:24:08.362Z,8.80
2022-10-17T18:26:36.606Z,8.70
2022-10-17T18:29:04.861Z,12.40
2022-10-17T18:31:36.061Z,10.20
2022-10-17T18:34:07.705Z,10.30
2022-10-17T18:36:37.192Z,7.40
2022-10-17T18:39:05.708Z,12.30
2022-10-17T18:41:35.781Z,9.40
2022-10-17T18:44:04.949Z,10.30
2022-10-17T18:46:43.454Z,7.80
2022-10-17T18:49:19.039Z,7.60
2022-10-17T18:51:47.315Z,12.20
2022-10-17T18:54:22.126Z,17.30
2022-10-17T18:56:54.281Z,10.10
2022-10-17T18:59:23.502Z,5.50
2022-10-17T19:01:51.774Z,7.00
2022-10-17T19:04:21.618Z,7.30
2022-10-17T19:06:50.307Z,6.10
2022-10-17T19:09:18.014Z,6.40
2022-10-17T19:11:47.500Z,7.20
2022-10-17T19:14:15.419Z,6.20
2022-10-17T19:16:48.012Z,5.60
2022-10-17T19:19:19.324Z,4.50
2022-10-17T19:21:48.500Z,6.60
2022-10-17T19:24:36.561Z,8.70
2022-10-17T19:27:06.271Z,9.40
2022-10-17T19:29:34.316Z,7.50
2022-10-17T19:32:07.702Z,5.90
2022-10-17T19:34:38.997Z,7.40
2022-10-17T19:37:07.345Z,5.70
2022-10-17T19:39:35.039Z,4.80
2022-10-17T19:42:06.689Z,5.40
2022-10-17T19:44:35.663Z,5.60
2022-10-17T19:47:04.991Z,3.90
2022-10-17T19:49:33.880Z,3.90
2022-10-17T19:52:01.602Z,2.60
2022-10-17T19:54:29.961Z,2.80
2022-10-17T19:56:59.775Z,4.10
2022-10-17T19:59:27.598Z,4.90
2022-10-17T20:01:58.006Z,4.60
2022-10-17T20:04:28.393Z,5.10
2022-10-17T20:07:00.036Z,4.80
2022-10-17T20:09:29.362Z,5.90
2022-10-17T20:11:59.433Z,6.30
2022-10-17T20:14:27.097Z,6.40
2022-10-17T20:16:55.278Z,5.70
2022-10-17T20:19:23.169Z,5.30
2022-10-17T20:21:50.990Z,5.40
2022-10-17T20:24:18.818Z,4.70
2022-10-17T20:26:46.553Z,4.20
2022-10-17T20:29:20.412Z,5.30
2022-10-17T20:31:50.712Z,5.90
2022-10-17T20:34:20.301Z,9.40
2022-10-17T20:36:49.049Z,7.80
2022-10-17T20:39:21.362Z,7.00
2022-10-17T20:41:50.283Z,5.70
2022-10-17T20:44:21.303Z,5.20
2022-10-17T20:47:01.233Z,4.00
2022-10-17T20:49:32.101Z,6.10
2022-10-17T20:52:01.183Z,5.50
2022-10-17T20:54:30.500Z,4.90
2022-10-17T20:57:01.135Z,2.90
2022-10-17T20:59:35.174Z,2.30
2022-10-17T21:02:05.675Z,2.60
2022-10-17T21:04:45.868Z,2.70
2022-10-17T21:07:15.534Z,2.90
2022-10-17T21:09:44.468Z,2.90
2022-10-17T21:12:18.121Z,3.20
2022-10-17T21:14:57.020Z,3.10
2022-10-17T21:17:24.821Z,4.60
2022-10-17T21:19:54.666Z,5.40
2022-10-17T21:22:22.382Z,5.70
2022-10-17T21:24:50.082Z,4.80
2022-10-17T21:27:20.178Z,4.10
2022-10-17T21:29:49.166Z,2.20
2022-10-17T21:32:31.868Z,3.40
2022-10-17T21:35:05.113Z,3.00
2022-10-17T21:37:33.084Z,3.20
2022-10-17T21:40:00.750Z,3.50
2022-10-17T21:42:29.854Z,5.00
2022-10-17T21:44:58.289Z,4.20
2022-10-17T21:47:30.151Z,7.40
2022-10-17T21:49:58.578Z,5.20
2022-10-17T21:52:28.076Z,5.90
2022-10-17T21:54:57.254Z,4.40
2022-10-17T21:57:25.325Z,5.10
2022-10-17T21:59:57.760Z,3.00
2022-10-17T22:02:25.532Z,2.40
2022-10-17T22:04:54.081Z,2.40
2022-10-17T22:07:22.558Z,2.60
2022-10-17T22:09:50.226Z,2.60
2022-10-17T22:12:17.912Z,2.70
2022-10-17T22:14:45.673Z,2.50
2022-10-17T22:17:13.703Z,2.60
2022-10-17T22:19:41.411Z,2.50
2022-10-17T22:22:09.477Z,3.40
2022-10-17T22:24:39.065Z,2.80
2022-10-17T22:27:13.594Z,2.90
2022-10-17T22:29:41.573Z,2.40
2022-10-17T22:32:09.327Z,2.80
2022-10-17T22:34:37.378Z,2.40
2022-10-17T22:37:05.038Z,2.50
2022-10-17T22:39:35.098Z,3.50
2022-10-17T22:42:03.002Z,2.90
2022-10-17T22:44:33.637Z,2.90
2022-10-17T22:47:02.818Z,3.50
2022-10-17T22:49:32.846Z,2.80
2022-10-17T22:52:02.091Z,2.90
2022-10-17T22:54:30.676Z,5.00
2022-10-17T22:56:58.855Z,3.10
2022-10-17T22:59:27.337Z,3.40
2022-10-17T23:01:55.273Z,3.40
2022-10-17T23:04:24.463Z,3.60
2022-10-17T23:06:52.828Z,4.70
2022-10-17T23:09:22.340Z,4.80
2022-10-17T23:11:51.121Z,6.40
2022-10-17T23:14:18.933Z,5.90
2022-10-17T23:16:49.146Z,5.30
2022-10-17T23:19:16.810Z,5.40
2022-10-17T23:21:45.662Z,5.10
2022-10-17T23:24:13.460Z,4.70
2022-10-17T23:26:41.125Z,4.80
2022-10-17T23:29:13.029Z,4.10
2022-10-17T23:31:40.793Z,3.90
2022-10-17T23:34:08.950Z,3.40
2022-10-17T23:36:38.644Z,4.60
2022-10-17T23:39:08.758Z,5.70
2022-10-17T23:41:36.428Z,5.00
2022-10-17T23:44:05.243Z,4.80
2022-10-17T23:46:33.090Z,5.60
2022-10-17T23:49:04.719Z,6.00
2022-10-17T23:51:33.939Z,6.30
2022-10-17T23:54:01.680Z,4.30
2022-10-17T23:56:29.313Z,4.80
2022-10-17T23:58:57.019Z,4.60
